createdAt,value
2019-03-21T00:00:33.949Z,9.32
2019-03-21T00:01:58.370Z,9.31
2019-03-21T00:03:02.888Z,9.29
2019-03-21T00:04:12.711Z,9.32
2019-03-21T00:05:18.203Z,9.28
2019-03-21T00:06:22.740Z,9.27
2019-03-21T00:07:27.388Z,9.30
2019-03-21T00:08:32.205Z,9.27
2019-03-21T00:09:39.333Z,9.28
2019-03-21T00:11:06.038Z,9.32
2019-03-21T00:12:11.285Z,9.29
2019-03-21T00:13:18.448Z,9.30
2019-03-21T00:14:47.033Z,9.27
2019-03-21T00:15:57.465Z,9.30
2019-03-21T00:17:03.703Z,9.28
2019-03-21T00:18:13.818Z,9.28
2019-03-21T00:19:21.424Z,9.29
2019-03-21T00:20:28.874Z,9.31
2019-03-21T00:21:33.337Z,9.28
2019-03-21T00:22:37.803Z,9.29
2019-03-21T00:23:43.327Z,9.28
2019-03-21T00:24:50.941Z,9.29
2019-03-21T00:25:55.723Z,9.25
2019-03-21T00:27:00.264Z,9.26
2019-03-21T00:28:05.145Z,9.31
2019-03-21T00:29:09.705Z,9.31
2019-03-21T00:30:22.982Z,9.28
2019-03-21T00:31:27.519Z,9.30
2019-03-21T00:32:32.071Z,9.28
2019-03-21T00:33:36.558Z,9.30
2019-03-21T00:34:41.022Z,9.28
2019-03-21T00:35:48.218Z,9.28
2019-03-21T00:36:52.966Z,9.33
2019-03-21T00:38:00.454Z,9.29
2019-03-21T00:39:07.553Z,9.30
2019-03-21T00:40:17.989Z,9.30
2019-03-21T00:41:22.459Z,9.31
2019-03-21T00:42:27.232Z,9.30
2019-03-21T00:43:32.690Z,9.32
2019-03-21T00:44:37.465Z,9.35
2019-03-21T00:45:44.691Z,9.35
2019-03-21T00:46:52.147Z,9.34
2019-03-21T00:47:56.621Z,9.32
2019-03-21T00:49:01.114Z,9.31
2019-03-21T00:50:14.072Z,9.34
2019-03-21T00:51:21.632Z,9.32
2019-03-21T00:52:29.060Z,9.31
2019-03-21T00:53:36.878Z,9.29
2019-03-21T00:54:41.367Z,9.27
2019-03-21T00:56:01.328Z,9.27
2019-03-21T00:57:05.792Z,9.30
2019-03-21T00:58:10.634Z,9.30
2019-03-21T00:59:19.044Z,9.34
2019-03-21T01:00:29.473Z,9.32
2019-03-21T01:01:34.252Z,9.27
2019-03-21T01:02:38.723Z,9.29
2019-03-21T01:03:43.230Z,9.30
2019-03-21T01:04:47.987Z,9.30
2019-03-21T01:05:52.455Z,9.28
2019-03-21T01:06:56.928Z,9.29
2019-03-21T01:08:04.449Z,9.27
2019-03-21T01:09:16.853Z,9.28
2019-03-21T01:10:29.276Z,9.28
2019-03-21T01:11:36.738Z,9.27
2019-03-21T01:12:41.213Z,9.26
2019-03-21T01:13:46.075Z,9.26
2019-03-21T01:14:51.847Z,9.22
2019-03-21T01:15:56.320Z,9.24
2019-03-21T01:17:03.469Z,9.29
2019-03-21T01:18:12.242Z,9.28
2019-03-21T01:19:16.863Z,9.26
2019-03-21T01:20:21.356Z,9.27
2019-03-21T01:21:29.602Z,9.28
2019-03-21T01:22:34.448Z,9.23
2019-03-21T01:23:38.915Z,9.24
2019-03-21T01:24:43.706Z,9.26
2019-03-21T01:25:54.323Z,9.28
2019-03-21T01:26:58.863Z,9.29
2019-03-21T01:28:06.674Z,9.26
2019-03-21T01:29:14.094Z,9.29
2019-03-21T01:30:20.730Z,9.31
2019-03-21T01:31:28.269Z,9.33
2019-03-21T01:32:35.980Z,9.33
2019-03-21T01:33:40.457Z,9.23
2019-03-21T01:34:45.257Z,9.27
2019-03-21T01:35:50.043Z,9.27
2019-03-21T01:36:57.525Z,9.31
2019-03-21T01:38:04.669Z,9.31
2019-03-21T01:39:12.471Z,9.28
2019-03-21T01:40:20.165Z,9.26
2019-03-21T01:41:27.582Z,9.31
2019-03-21T01:42:32.060Z,9.29
2019-03-21T01:43:39.267Z,9.27
2019-03-21T01:44:47.978Z,9.26
2019-03-21T02:37:36.137Z,9.31
2019-03-21T02:39:01.405Z,9.26
2019-03-21T02:40:26.911Z,9.24
2019-03-21T02:41:51.685Z,9.28
2019-03-21T02:58:39.320Z,9.21
2019-03-21T02:59:47.985Z,9.24
2019-03-21T03:00:54.885Z,9.24
2019-03-21T03:01:59.376Z,9.23
2019-03-21T03:03:04.514Z,9.18
2019-03-21T03:04:10.123Z,9.22
2019-03-21T03:17:17.795Z,9.24
2019-03-21T03:18:23.721Z,9.24
2019-03-21T03:19:29.172Z,9.23
2019-03-21T03:20:33.681Z,9.23
2019-03-21T03:21:41.102Z,9.29
2019-03-21T03:22:48.476Z,9.28
2019-03-21T03:23:52.999Z,9.29
2019-03-21T03:25:44.906Z,9.30
2019-03-21T03:38:10.910Z,9.28
2019-03-21T03:39:37.630Z,9.28
2019-03-21T03:47:53.165Z,9.24
2019-03-21T04:00:20.686Z,9.18
2019-03-21T04:30:38.254Z,9.28
2019-03-21T04:31:45.328Z,9.28
2019-03-21T04:32:49.807Z,9.31
2019-03-21T04:34:00.825Z,9.27
2019-03-21T04:35:10.189Z,9.28
2019-03-21T04:36:14.737Z,9.29
2019-03-21T04:37:22.347Z,9.30
2019-03-21T04:38:27.264Z,9.33
2019-03-21T04:39:31.734Z,9.31
2019-03-21T04:40:39.297Z,9.31
2019-03-21T04:41:45.492Z,9.30
2019-03-21T04:42:49.964Z,9.30
2019-03-21T04:43:54.527Z,9.28
2019-03-21T04:45:00.536Z,9.31
2019-03-21T04:46:05.159Z,9.30
2019-03-21T04:47:09.879Z,9.31
2019-03-21T04:48:14.340Z,9.32
2019-03-21T04:49:19.812Z,9.32
2019-03-21T04:50:30.023Z,9.33
2019-03-21T04:51:34.502Z,9.31
2019-03-21T04:52:39.285Z,9.32
2019-03-21T04:53:47.071Z,9.31
2019-03-21T04:54:53.775Z,9.35
2019-03-21T04:55:58.305Z,9.37
2019-03-21T04:57:04.299Z,9.36
2019-03-21T04:58:14.587Z,9.37
2019-03-21T04:59:19.363Z,9.26
2019-03-21T05:00:38.136Z,9.26
2019-03-21T05:01:44.190Z,9.29
2019-03-21T05:02:49.499Z,9.36
2019-03-21T05:03:53.979Z,9.40
2019-03-21T05:04:58.527Z,9.34
2019-03-21T05:06:06.306Z,9.35
2019-03-21T05:07:10.853Z,9.37
2019-03-21T05:08:16.413Z,9.39
2019-03-21T05:09:23.809Z,9.40
2019-03-21T05:10:37.570Z,9.38
2019-03-21T05:11:44.831Z,9.38
2019-03-21T05:12:52.626Z,9.31
2019-03-21T05:13:57.223Z,9.36
2019-03-21T05:15:01.710Z,9.43
2019-03-21T05:16:14.245Z,9.39
2019-03-21T05:17:14.871Z,9.41
2019-03-21T05:18:22.387Z,9.44
2019-03-21T05:19:29.752Z,9.41
2019-03-21T05:20:34.244Z,9.37
2019-03-21T05:21:41.375Z,9.37
2019-03-21T05:22:45.907Z,9.36
2019-03-21T05:23:50.384Z,9.42
2019-03-21T05:24:54.880Z,9.44
2019-03-21T05:25:59.341Z,9.43
2019-03-21T05:27:03.841Z,9.43
2019-03-21T05:28:11.049Z,9.43
2019-03-21T05:29:15.597Z,9.37
2019-03-21T05:30:31.228Z,9.42
2019-03-21T05:31:36.460Z,9.38
2019-03-21T05:32:40.930Z,9.41
2019-03-21T05:33:49.811Z,9.41
2019-03-21T05:34:54.355Z,9.46
2019-03-21T05:35:58.999Z,9.42
2019-03-21T05:37:03.767Z,9.48
2019-03-21T05:38:08.227Z,9.47
2019-03-21T05:39:15.654Z,9.52
2019-03-21T05:40:23.463Z,9.51
2019-03-21T05:41:28.265Z,9.48
2019-03-21T05:42:35.434Z,9.49
2019-03-21T05:43:46.806Z,9.46
2019-03-21T05:44:53.949Z,9.43
2019-03-21T05:45:58.438Z,9.45
2019-03-21T05:47:02.912Z,9.48
2019-03-21T05:48:07.377Z,9.46
2019-03-21T05:49:11.857Z,9.44
2019-03-21T05:50:17.876Z,9.48
2019-03-21T05:51:29.026Z,9.48
2019-03-21T05:52:33.491Z,9.51
2019-03-21T05:53:40.666Z,9.52
2019-03-21T05:54:45.137Z,9.53
2019-03-21T05:55:49.619Z,9.52
2019-03-21T05:56:56.854Z,9.54
2019-03-21T05:58:01.402Z,9.53
2019-03-21T05:59:06.206Z,9.50
2019-03-21T06:00:32.315Z,9.57
2019-03-21T06:01:40.309Z,9.57
2019-03-21T06:02:44.776Z,9.64
2019-03-21T06:03:50.666Z,9.57
2019-03-21T06:04:55.571Z,9.58
2019-03-21T06:06:16.934Z,9.63
2019-03-21T06:07:25.640Z,9.63
2019-03-21T06:08:38.751Z,9.61
2019-03-21T06:09:45.884Z,9.64
2019-03-21T06:10:50.446Z,9.67
2019-03-21T06:12:03.147Z,9.73
2019-03-21T06:13:10.330Z,9.69
2019-03-21T06:14:14.868Z,9.68
2019-03-21T06:15:25.253Z,9.73
2019-03-21T06:16:37.541Z,9.70
2019-03-21T06:17:41.918Z,9.73
2019-03-21T06:19:01.288Z,9.73
2019-03-21T06:20:31.633Z,9.70
2019-03-21T06:21:51.122Z,9.71
2019-03-21T06:23:02.405Z,9.74
2019-03-21T06:24:25.027Z,9.70
2019-03-21T06:25:47.393Z,9.75
2019-03-21T06:27:14.459Z,9.76
2019-03-21T06:28:19.036Z,9.76
2019-03-21T06:29:26.523Z,9.76
2019-03-21T06:30:33.923Z,9.82
2019-03-21T06:31:44.715Z,9.86
2019-03-21T06:32:52.135Z,9.86
2019-03-21T06:34:01.233Z,9.86
2019-03-21T06:35:07.736Z,9.87
2019-03-21T06:36:15.193Z,9.80
2019-03-21T06:37:19.661Z,9.91
2019-03-21T06:38:24.131Z,9.89
2019-03-21T06:39:28.596Z,9.91
2019-03-21T06:40:35.789Z,9.87
2019-03-21T06:41:44.269Z,9.92
2019-03-21T06:42:48.730Z,9.94
2019-03-21T06:43:54.734Z,9.91
2019-03-21T06:45:00.837Z,9.89
2019-03-21T06:46:08.015Z,9.92
2019-03-21T06:47:12.523Z,9.91
2019-03-21T06:48:17.024Z,10.02
2019-03-21T06:49:21.506Z,10.02
2019-03-21T06:50:33.844Z,10.04
2019-03-21T06:51:46.315Z,9.99
2019-03-21T06:52:50.848Z,9.92
2019-03-21T06:54:01.877Z,9.92
2019-03-21T06:55:06.582Z,10.09
2019-03-21T06:56:14.067Z,10.13
2019-03-21T06:57:18.635Z,10.17
2019-03-21T06:58:26.284Z,10.17
2019-03-21T06:59:30.771Z,10.21
2019-03-21T07:00:41.196Z,10.23
2019-03-21T07:01:49.086Z,10.23
2019-03-21T07:02:53.562Z,10.22
2019-03-21T07:04:06.585Z,10.22
2019-03-21T07:05:06.291Z,10.28
2019-03-21T07:06:13.804Z,10.33
2019-03-21T07:07:18.715Z,10.33
2019-03-21T07:08:26.409Z,10.32
2019-03-21T07:09:33.549Z,10.33
2019-03-21T07:10:38.026Z,10.38
2019-03-21T07:11:42.944Z,10.45
2019-03-21T07:12:47.435Z,10.45
2019-03-21T07:13:51.907Z,10.40
2019-03-21T07:14:56.380Z,10.44
2019-03-21T07:16:00.849Z,10.40
2019-03-21T07:17:05.596Z,10.40
2019-03-21T07:18:15.734Z,10.48
2019-03-21T07:19:20.215Z,10.47
2019-03-21T07:20:24.680Z,10.43
2019-03-21T07:21:33.140Z,10.48
2019-03-21T07:22:38.629Z,10.45
2019-03-21T07:23:43.672Z,10.43
2019-03-21T07:24:53.201Z,10.46
2019-03-21T07:25:58.305Z,10.53
2019-03-21T07:27:06.358Z,10.56
2019-03-21T07:28:13.567Z,10.60
2019-03-21T07:29:18.069Z,10.65
2019-03-21T07:30:28.499Z,10.59
2019-03-21T07:31:32.970Z,10.59
2019-03-21T07:32:37.485Z,10.53
2019-03-21T07:33:46.548Z,10.47
2019-03-21T07:34:51.047Z,10.47
2019-03-21T07:35:55.910Z,10.47
2019-03-21T07:37:03.662Z,10.44
2019-03-21T07:38:14.476Z,10.49
2019-03-21T07:39:21.901Z,10.45
2019-03-21T07:40:29.148Z,10.40
2019-03-21T07:41:33.998Z,10.44
2019-03-21T07:42:38.474Z,10.46
2019-03-21T07:43:45.804Z,10.51
2019-03-21T07:44:50.263Z,10.54
2019-03-21T07:45:57.687Z,10.61
2019-03-21T07:47:12.308Z,10.68
2019-03-21T07:48:09.839Z,10.60
2019-03-21T07:49:14.319Z,10.63
2019-03-21T07:50:19.048Z,10.57
2019-03-21T07:51:23.520Z,10.54
2019-03-21T07:52:28.832Z,10.56
2019-03-21T07:53:38.630Z,10.60
2019-03-21T07:54:52.206Z,10.66
2019-03-21T07:55:57.135Z,10.67
2019-03-21T07:57:01.614Z,10.69
2019-03-21T07:58:15.537Z,10.69
2019-03-21T07:59:20.003Z,10.68
2019-03-21T08:00:29.180Z,10.68
2019-03-21T08:01:37.405Z,10.65
2019-03-21T08:02:41.889Z,10.68
2019-03-21T08:03:49.187Z,10.68
2019-03-21T08:04:53.668Z,10.62
2019-03-21T08:05:58.142Z,10.70
2019-03-21T08:07:02.664Z,10.74
2019-03-21T08:08:13.071Z,10.65
2019-03-21T08:09:22.348Z,10.64
2019-03-21T08:10:26.933Z,10.68
2019-03-21T08:11:40.489Z,10.67
2019-03-21T08:12:44.964Z,10.71
2019-03-21T08:13:49.471Z,10.70
2019-03-21T08:14:53.929Z,10.70
2019-03-21T08:15:58.404Z,10.72
2019-03-21T08:17:02.878Z,10.69
2019-03-21T08:18:12.408Z,10.75
2019-03-21T08:19:13.554Z,10.77
2019-03-21T08:20:19.939Z,10.81
2019-03-21T08:21:27.354Z,10.75
2019-03-21T08:22:31.838Z,10.68
2019-03-21T08:23:36.332Z,10.70
2019-03-21T08:24:40.814Z,10.69
2019-03-21T08:25:48.643Z,10.75
2019-03-21T08:26:53.117Z,10.67
2019-03-21T08:27:57.982Z,10.74
2019-03-21T08:29:09.985Z,10.83
2019-03-21T08:30:40.359Z,10.80
2019-03-21T08:31:47.816Z,10.91
2019-03-21T08:32:52.361Z,10.88
2019-03-21T08:34:05.177Z,10.73
2019-03-21T08:35:12.496Z,10.88
2019-03-21T08:36:17.113Z,10.79
2019-03-21T08:37:21.592Z,10.95
2019-03-21T08:38:35.204Z,10.80
2019-03-21T08:39:49.173Z,10.85
2019-03-21T08:40:53.651Z,10.94
2019-03-21T08:41:58.483Z,10.94
2019-03-21T08:43:04.435Z,10.97
2019-03-21T08:44:12.525Z,11.05
2019-03-21T08:45:18.444Z,11.09
2019-03-21T08:46:25.598Z,11.11
2019-03-21T08:47:32.889Z,11.15
2019-03-21T08:48:40.032Z,11.12
2019-03-21T08:49:50.070Z,11.29
2019-03-21T08:50:54.888Z,11.24
2019-03-21T08:52:02.032Z,11.29
2019-03-21T08:53:06.500Z,11.32
2019-03-21T08:54:10.987Z,11.25
2019-03-21T08:55:18.533Z,11.25
2019-03-21T08:56:25.985Z,11.37
2019-03-21T08:57:31.656Z,11.33
2019-03-21T08:58:36.482Z,11.35
2019-03-21T08:59:48.039Z,11.29
2019-03-21T09:00:55.948Z,11.32
2019-03-21T09:02:00.431Z,11.30
2019-03-21T09:03:05.459Z,11.28
2019-03-21T09:04:11.024Z,11.19
2019-03-21T09:05:19.036Z,11.19
2019-03-21T09:06:25.268Z,11.21
2019-03-21T09:07:31.574Z,11.25
2019-03-21T09:08:37.114Z,11.17
2019-03-21T09:09:46.242Z,11.17
2019-03-21T09:10:52.075Z,11.16
2019-03-21T09:11:56.536Z,11.23
2019-03-21T09:13:01.007Z,11.23
2019-03-21T09:14:05.507Z,11.21
2019-03-21T09:15:11.211Z,11.16
2019-03-21T09:16:15.759Z,11.20
2019-03-21T09:17:23.337Z,11.27
2019-03-21T09:18:34.144Z,11.20
2019-03-21T09:19:41.031Z,11.20
2019-03-21T09:20:46.395Z,11.26
2019-03-21T09:21:50.865Z,11.25
2019-03-21T09:23:03.089Z,11.25
2019-03-21T09:24:09.567Z,11.36
2019-03-21T09:25:18.965Z,11.49
2019-03-21T09:26:26.407Z,11.56
2019-03-21T09:27:33.784Z,11.64
2019-03-21T09:28:40.090Z,11.52
2019-03-21T09:29:53.114Z,11.67
2019-03-21T09:30:50.886Z,11.58
2019-03-21T09:31:55.854Z,11.68
2019-03-21T09:33:03.025Z,11.87
2019-03-21T09:34:07.492Z,11.86
2019-03-21T09:35:12.711Z,11.71
2019-03-21T09:36:19.923Z,11.56
2019-03-21T09:37:27.305Z,11.66
2019-03-21T09:38:31.783Z,11.75
2019-03-21T09:39:41.026Z,11.83
2019-03-21T09:40:48.427Z,11.88
2019-03-21T09:41:52.900Z,11.89
2019-03-21T09:42:57.678Z,11.88
2019-03-21T09:44:02.149Z,11.91
2019-03-21T09:45:08.302Z,11.88
2019-03-21T09:46:12.768Z,11.92
2019-03-21T09:47:17.244Z,11.70
2019-03-21T09:48:21.745Z,11.85
2019-03-21T09:49:29.876Z,11.88
2019-03-21T09:50:34.693Z,11.77
2019-03-21T09:51:41.860Z,11.71
2019-03-21T09:52:46.332Z,11.80
2019-03-21T09:53:50.805Z,11.79
2019-03-21T09:54:58.567Z,11.98
2019-03-21T09:56:03.403Z,11.88
2019-03-21T09:57:07.879Z,11.88
2019-03-21T09:58:12.367Z,12.03
2019-03-21T09:59:17.131Z,12.16
2019-03-21T10:00:27.745Z,12.23
2019-03-21T10:01:35.048Z,12.28
2019-03-21T10:02:42.825Z,12.29
2019-03-21T10:03:47.297Z,12.38
2019-03-21T10:04:55.725Z,12.50
2019-03-21T10:06:02.204Z,12.39
2019-03-21T10:07:07.072Z,12.49
2019-03-21T10:08:14.591Z,12.48
2019-03-21T10:09:26.206Z,12.42
2019-03-21T10:10:34.363Z,12.40
2019-03-21T10:11:41.770Z,12.68
2019-03-21T10:12:49.186Z,12.73
2019-03-21T10:13:53.658Z,12.69
2019-03-21T10:15:01.575Z,12.67
2019-03-21T10:16:08.459Z,12.56
2019-03-21T10:17:16.281Z,12.64
2019-03-21T10:18:27.672Z,12.76
2019-03-21T10:19:32.159Z,12.73
2019-03-21T10:20:39.715Z,12.68
2019-03-21T10:21:44.195Z,12.50
2019-03-21T10:22:51.771Z,12.31
2019-03-21T10:23:56.242Z,12.21
2019-03-21T10:25:09.396Z,12.06
2019-03-21T10:26:13.948Z,12.30
2019-03-21T10:27:25.814Z,12.33
2019-03-21T10:28:36.676Z,12.39
2019-03-21T10:29:41.155Z,12.38
2019-03-21T10:30:48.073Z,12.47
2019-03-21T10:31:53.810Z,12.40
2019-03-21T10:33:06.712Z,12.45
2019-03-21T10:34:11.545Z,12.41
2019-03-21T10:35:16.404Z,12.45
2019-03-21T10:36:20.887Z,12.44
2019-03-21T10:37:28.341Z,12.32
2019-03-21T10:38:35.529Z,12.22
2019-03-21T10:39:40.001Z,12.25
2019-03-21T10:40:44.495Z,12.39
2019-03-21T10:41:52.177Z,12.40
2019-03-21T10:43:01.776Z,12.32
2019-03-21T10:44:07.041Z,12.41
2019-03-21T10:45:11.577Z,12.40
2019-03-21T10:46:16.204Z,12.38
2019-03-21T10:47:24.173Z,12.28
2019-03-21T10:48:28.649Z,12.38
2019-03-21T10:49:33.239Z,12.33
2019-03-21T10:50:39.835Z,12.47
2019-03-21T10:51:54.396Z,12.40
2019-03-21T10:52:55.871Z,12.48
2019-03-21T10:54:03.259Z,12.47
2019-03-21T10:55:10.683Z,12.53
2019-03-21T10:56:18.094Z,12.71
2019-03-21T10:57:25.530Z,12.59
2019-03-21T10:58:33.068Z,12.64
2019-03-21T10:59:38.523Z,12.63
2019-03-21T11:00:50.630Z,12.67
2019-03-21T11:02:06.909Z,12.72
2019-03-21T11:03:10.832Z,12.83
2019-03-21T11:04:18.338Z,12.67
2019-03-21T11:05:25.743Z,12.57
2019-03-21T11:06:36.845Z,12.52
2019-03-21T11:07:44.513Z,12.63
2019-03-21T11:08:57.723Z,12.61
2019-03-21T11:10:05.996Z,12.63
2019-03-21T11:11:10.505Z,12.69
2019-03-21T11:12:18.128Z,12.66
2019-03-21T11:13:25.557Z,12.69
2019-03-21T11:14:30.457Z,12.56
2019-03-21T11:15:35.518Z,12.61
2019-03-21T11:16:39.985Z,12.68
2019-03-21T11:17:44.528Z,12.54
2019-03-21T11:18:54.969Z,12.50
2019-03-21T11:20:06.111Z,12.47
2019-03-21T11:21:10.114Z,12.52
2019-03-21T11:22:20.305Z,12.57
2019-03-21T11:23:26.292Z,12.55
2019-03-21T11:24:37.101Z,12.56
2019-03-21T11:25:44.352Z,12.59
2019-03-21T11:26:49.214Z,12.46
2019-03-21T11:27:54.672Z,12.67
2019-03-21T11:29:02.662Z,12.69
2019-03-21T11:30:16.050Z,12.64
2019-03-21T11:31:16.135Z,12.56
2019-03-21T11:32:23.757Z,12.48
2019-03-21T11:33:31.164Z,12.40
2019-03-21T11:34:35.637Z,12.39
2019-03-21T11:35:40.182Z,12.36
2019-03-21T11:36:54.066Z,12.38
2019-03-21T11:38:00.053Z,12.45
2019-03-21T11:39:08.066Z,12.53
2019-03-21T11:40:12.539Z,12.49
2019-03-21T11:41:17.019Z,12.47
2019-03-21T11:42:26.593Z,12.42
2019-03-21T11:43:33.767Z,12.39
2019-03-21T11:44:39.015Z,12.41
2019-03-21T11:45:43.575Z,12.41
2019-03-21T11:46:48.740Z,12.47
2019-03-21T11:47:53.239Z,12.40
2019-03-21T11:48:58.034Z,12.39
2019-03-21T11:50:02.596Z,12.32
2019-03-21T11:51:07.070Z,12.48
2019-03-21T11:52:18.179Z,12.53
2019-03-21T11:53:20.658Z,12.37
2019-03-21T11:54:28.049Z,12.41
2019-03-21T11:55:35.054Z,12.49
2019-03-21T11:56:39.545Z,12.46
2019-03-21T11:57:46.702Z,12.53
2019-03-21T11:59:00.271Z,12.54
2019-03-21T12:00:09.572Z,12.54
2019-03-21T12:01:14.113Z,12.57
2019-03-21T12:02:27.185Z,12.64
2019-03-21T12:03:30.743Z,12.54
2019-03-21T12:04:36.326Z,12.53
2019-03-21T12:05:40.805Z,12.57
2019-03-21T12:06:48.374Z,12.51
2019-03-21T12:07:55.572Z,12.50
2019-03-21T12:09:03.167Z,12.60
2019-03-21T12:10:16.667Z,12.55
2019-03-21T12:11:23.083Z,12.60
2019-03-21T12:12:31.356Z,12.70
2019-03-21T12:13:40.139Z,12.70
2019-03-21T12:14:49.761Z,12.74
2019-03-21T12:15:57.720Z,12.61
2019-03-21T12:17:02.238Z,12.68
2019-03-21T12:18:09.649Z,12.60
2019-03-21T12:19:14.488Z,12.61
2019-03-21T12:20:32.600Z,12.68
2019-03-21T12:21:37.512Z,12.72
2019-03-21T12:22:47.277Z,12.73
2019-03-21T12:23:54.488Z,12.69
2019-03-21T12:24:59.934Z,12.75
2019-03-21T12:26:08.977Z,12.95
2019-03-21T12:27:16.392Z,12.95
2019-03-21T12:28:23.918Z,12.80
2019-03-21T12:29:28.388Z,12.69
2019-03-21T12:30:37.892Z,12.72
2019-03-21T12:31:42.663Z,12.81
2019-03-21T12:32:47.149Z,12.74
2019-03-21T12:33:53.425Z,12.79
2019-03-21T12:35:06.940Z,12.75
2019-03-21T12:36:11.412Z,12.70
2019-03-21T12:37:19.244Z,12.64
2019-03-21T12:38:23.734Z,12.70
2019-03-21T12:39:31.492Z,12.64
2019-03-21T12:40:36.160Z,12.67
2019-03-21T12:41:40.629Z,12.68
2019-03-21T12:42:47.840Z,12.53
2019-03-21T12:43:52.319Z,12.60
2019-03-21T12:44:56.795Z,12.68
2019-03-21T12:46:01.600Z,12.71
2019-03-21T12:47:06.074Z,12.51
2019-03-21T12:48:10.567Z,12.41
2019-03-21T12:49:22.448Z,12.39
2019-03-21T12:50:25.184Z,12.37
2019-03-21T12:51:32.584Z,12.41
2019-03-21T12:53:43.567Z,12.41
2019-03-21T12:54:50.956Z,12.44
2019-03-21T12:55:59.177Z,12.37
2019-03-21T12:57:07.618Z,12.53
2019-03-21T12:58:12.108Z,12.54
2019-03-21T12:59:19.683Z,12.54
2019-03-21T13:00:38.100Z,12.51
2019-03-21T13:01:44.735Z,12.52
2019-03-21T13:02:49.538Z,12.61
2019-03-21T13:03:54.043Z,12.68
2019-03-21T13:04:58.503Z,12.67
2019-03-21T13:06:02.984Z,12.68
2019-03-21T13:07:10.614Z,12.57
2019-03-21T13:07:13.416Z,12.36
2019-03-21T13:08:15.168Z,12.53
2019-03-21T13:09:19.643Z,12.48
2019-03-21T13:10:24.113Z,12.48
2019-03-21T13:11:28.588Z,12.51
2019-03-21T13:12:33.060Z,12.44
2019-03-21T13:13:37.567Z,12.39
2019-03-21T13:14:42.040Z,12.44
2019-03-21T13:15:49.784Z,12.39
2019-03-21T13:16:54.648Z,12.45
2019-03-21T13:18:00.654Z,12.49
2019-03-21T13:19:05.351Z,12.64
2019-03-21T13:20:10.065Z,12.54
2019-03-21T13:21:17.922Z,12.46
2019-03-21T13:22:22.459Z,12.60
2019-03-21T13:23:26.966Z,12.49
2019-03-21T13:24:31.436Z,12.46
2019-03-21T13:25:36.286Z,12.44
2019-03-21T13:26:44.058Z,12.52
2019-03-21T13:27:51.235Z,12.53
2019-03-21T13:29:02.054Z,12.51
2019-03-21T13:30:07.765Z,12.55
2019-03-21T13:31:14.885Z,12.63
2019-03-21T13:32:19.361Z,12.63
2019-03-21T13:33:26.978Z,12.68
2019-03-21T13:34:34.377Z,12.70
2019-03-21T13:35:38.854Z,12.67
2019-03-21T13:36:43.406Z,12.61
2019-03-21T13:37:47.880Z,12.68
2019-03-21T13:38:58.332Z,12.73
2019-03-21T13:40:02.803Z,12.65
2019-03-21T13:41:07.282Z,12.59
2019-03-21T13:42:11.752Z,12.57
2019-03-21T13:43:19.487Z,12.65
2019-03-21T13:44:23.940Z,12.69
2019-03-21T13:45:31.823Z,12.64
2019-03-21T13:46:36.296Z,12.50
2019-03-21T13:47:47.733Z,12.49
2019-03-21T13:48:55.787Z,12.55
2019-03-21T13:50:00.350Z,12.58
2019-03-21T13:51:04.976Z,12.44
2019-03-21T13:52:09.739Z,12.40
2019-03-21T13:53:18.904Z,12.48
2019-03-21T13:54:21.582Z,12.49
2019-03-21T13:55:26.054Z,12.49
2019-03-21T13:56:37.974Z,12.51
2019-03-21T13:57:42.196Z,12.41
2019-03-21T13:58:49.611Z,12.39
2019-03-21T13:59:54.082Z,12.32
2019-03-21T14:00:58.942Z,12.44
2019-03-21T14:02:03.417Z,12.44
2019-03-21T14:03:07.887Z,12.44
2019-03-21T14:04:12.388Z,12.46
2019-03-21T14:05:17.311Z,12.42
2019-03-21T14:06:23.564Z,12.52
2019-03-21T14:07:28.044Z,12.54
2019-03-21T14:08:32.523Z,12.39
2019-03-21T14:09:37.009Z,12.42
2019-03-21T14:10:41.552Z,12.47
2019-03-21T14:11:46.030Z,12.44
2019-03-21T14:12:50.820Z,12.48
2019-03-21T14:13:58.063Z,12.57
2019-03-21T14:15:19.469Z,12.46
2019-03-21T14:16:23.221Z,12.47
2019-03-21T14:17:28.146Z,12.39
2019-03-21T14:18:36.943Z,12.41
2019-03-21T14:19:44.115Z,12.44
2019-03-21T14:20:51.581Z,12.50
2019-03-21T14:21:56.071Z,12.53
2019-03-21T14:23:00.529Z,12.63
2019-03-21T14:24:05.007Z,12.79
2019-03-21T14:25:09.916Z,12.85
2019-03-21T14:26:25.105Z,12.72
2019-03-21T14:27:30.942Z,12.81
2019-03-21T14:28:38.589Z,12.91
2019-03-21T14:29:43.075Z,12.93
2019-03-21T14:30:48.812Z,12.98
2019-03-21T14:31:53.282Z,12.83
2019-03-21T14:33:00.487Z,12.72
2019-03-21T14:34:04.963Z,12.76
2019-03-21T14:35:12.736Z,12.78
2019-03-21T14:36:17.206Z,12.79
2019-03-21T14:37:21.715Z,12.79
2019-03-21T14:38:29.102Z,12.87
2019-03-21T14:39:33.918Z,12.85
2019-03-21T14:40:41.096Z,12.87
2019-03-21T14:41:45.574Z,12.64
2019-03-21T14:42:50.040Z,12.67
2019-03-21T14:43:54.547Z,12.66
2019-03-21T14:44:59.287Z,12.65
2019-03-21T14:46:03.759Z,12.48
2019-03-21T14:47:11.239Z,12.62
2019-03-21T14:48:18.669Z,12.60
2019-03-21T14:49:26.302Z,12.49
2019-03-21T14:50:35.305Z,12.59
2019-03-21T14:51:42.772Z,12.60
2019-03-21T14:52:47.579Z,12.61
2019-03-21T14:53:52.059Z,12.63
2019-03-21T14:54:58.744Z,12.46
2019-03-21T14:56:02.709Z,12.47
2019-03-21T14:57:07.200Z,12.48
2019-03-21T14:58:11.653Z,12.44
2019-03-21T14:59:18.807Z,12.46
2019-03-21T15:00:26.221Z,12.51
2019-03-21T15:01:30.697Z,12.60
2019-03-21T15:02:38.417Z,12.64
2019-03-21T15:03:42.893Z,12.67
2019-03-21T15:04:50.437Z,12.77
2019-03-21T15:05:54.903Z,12.74
2019-03-21T15:07:02.718Z,12.78
2019-03-21T15:08:07.189Z,12.77
2019-03-21T15:09:14.678Z,12.71
2019-03-21T15:10:19.428Z,12.67
2019-03-21T15:11:23.913Z,12.70
2019-03-21T15:12:29.753Z,12.71
2019-03-21T15:13:34.437Z,12.73
2019-03-21T15:14:41.826Z,12.73
2019-03-21T15:15:46.322Z,12.67
2019-03-21T15:16:50.800Z,12.64
2019-03-21T15:17:55.279Z,12.62
2019-03-21T15:19:02.419Z,12.65
2019-03-21T15:20:10.032Z,12.61
2019-03-21T15:21:14.517Z,12.70
2019-03-21T15:22:19.373Z,12.59
2019-03-21T15:23:25.876Z,12.65
2019-03-21T15:24:30.022Z,12.65
2019-03-21T15:25:35.985Z,12.69
2019-03-21T15:26:40.911Z,12.68
2019-03-21T15:27:46.358Z,12.70
2019-03-21T15:28:53.787Z,12.55
2019-03-21T15:29:58.451Z,12.65
2019-03-21T15:31:02.983Z,12.74
2019-03-21T15:32:07.459Z,12.69
2019-03-21T15:33:12.240Z,12.77
2019-03-21T15:34:16.811Z,12.82
2019-03-21T15:35:24.217Z,12.82
2019-03-21T15:36:29.112Z,12.88
2019-03-21T15:37:36.808Z,12.91
2019-03-21T15:38:44.062Z,12.88
2019-03-21T15:39:51.457Z,12.78
2019-03-21T15:41:02.017Z,12.89
2019-03-21T15:42:06.487Z,12.87
2019-03-21T15:43:14.293Z,12.87
2019-03-21T15:44:21.669Z,12.84
2019-03-21T15:45:26.159Z,12.89
2019-03-21T15:46:30.632Z,12.77
2019-03-21T15:47:38.117Z,12.73
2019-03-21T15:48:42.605Z,12.82
2019-03-21T15:49:50.359Z,12.75
2019-03-21T15:51:03.798Z,12.78
2019-03-21T15:52:01.251Z,12.67
2019-03-21T15:53:06.472Z,12.68
2019-03-21T15:54:10.938Z,12.61
2019-03-21T15:55:15.420Z,12.56
2019-03-21T15:56:20.281Z,12.64
2019-03-21T15:57:24.752Z,12.67
2019-03-21T15:58:29.232Z,12.66
2019-03-21T15:59:33.702Z,12.68
2019-03-21T16:00:44.744Z,12.77
2019-03-21T16:01:49.485Z,12.73
2019-03-21T16:02:56.757Z,12.84
2019-03-21T16:04:01.230Z,12.95
2019-03-21T16:05:08.084Z,12.96
2019-03-21T16:06:15.257Z,12.87
2019-03-21T16:07:20.055Z,12.83
2019-03-21T16:08:29.210Z,12.81
2019-03-21T16:09:34.043Z,12.89
2019-03-21T16:10:38.956Z,12.96
2019-03-21T16:11:46.514Z,12.99
2019-03-21T16:12:54.187Z,12.84
2019-03-21T16:14:01.656Z,12.81
2019-03-21T16:15:08.986Z,12.74
2019-03-21T16:16:13.801Z,12.69
2019-03-21T16:17:18.286Z,12.65
2019-03-21T16:18:23.419Z,12.68
2019-03-21T16:19:31.277Z,12.64
2019-03-21T16:20:41.431Z,12.72
2019-03-21T16:21:46.049Z,12.68
2019-03-21T16:22:53.606Z,12.72
2019-03-21T16:24:04.945Z,12.80
2019-03-21T16:25:12.395Z,12.80
2019-03-21T16:26:17.037Z,12.83
2019-03-21T16:27:21.995Z,12.83
2019-03-21T16:28:26.897Z,12.74
2019-03-21T16:29:36.826Z,12.69
2019-03-21T16:30:47.521Z,12.79
2019-03-21T16:31:52.580Z,12.59
2019-03-21T16:33:02.839Z,12.60
2019-03-21T16:34:13.017Z,12.57
2019-03-21T16:35:15.023Z,12.59
2019-03-21T16:36:19.531Z,12.54
2019-03-21T16:37:24.005Z,12.48
2019-03-21T16:38:29.583Z,12.47
2019-03-21T16:39:36.562Z,12.50
2019-03-21T16:40:44.142Z,12.37
2019-03-21T16:41:49.060Z,12.46
2019-03-21T16:42:53.832Z,12.45
2019-03-21T16:43:58.526Z,12.37
2019-03-21T16:45:09.857Z,12.36
2019-03-21T16:46:15.364Z,12.38
2019-03-21T16:47:19.886Z,12.32
2019-03-21T16:48:24.356Z,12.29
2019-03-21T16:49:37.956Z,12.31